Time;durP1;ratioP1;P1;durP2;ratioP2;P2;SDS_P1;SDS_P2;PMS_P1;PMS_P2;Temp;Humidity;BMP_temperature;BMP_pressure;BME280_temperature;BME280_humidity;BME280_pressure;Samples;Min_cycle;Max_cycle;Signal;HPM_P1;HPM_P2
2021/04/16 00:00:56;;;;;;;;;;;;;;;-0.78;100.00;100573.94;5110387;27;19916;-77
2021/04/16 00:03:34;;;;;;;;;;;;;;;-0.81;100.00;100576.47;5049648;28;19921;-77
2021/04/16 00:06:14;;;;;;;;;;;;;;;-0.77;100.00;100578.28;5090059;28;19916;-77
2021/04/16 00:08:51;;;;;;;;;;;;;;;-0.75;100.00;100575.22;5081047;27;1506135;-77
2021/04/16 00:11:28;;;;;;;;;;;;;;;-0.75;100.00;100580.72;5110250;27;19912;-77
2021/04/16 00:14:07;;;;;;;;;;;;;;;-0.71;100.00;100571.56;5110308;27;19916;-77
2021/04/16 00:16:46;;;;;;;;;;;;;;;-0.91;100.00;100563.81;5089881;28;19959;-77
2021/04/16 00:19:25;;;;;;;;;;;;;;;-0.97;100.00;100561.53;5110262;27;19912;-77
2021/04/16 00:22:03;;;;;;;;;;;;;;;-1.00;100.00;100567.63;5090055;28;20367;-77
2021/04/16 00:24:42;;;;;;;;;;;;;;;-1.05;100.00;100568.56;5089549;28;20379;-77
2021/04/16 00:27:20;;;;;;;;;;;;;;;-1.10;100.00;100562.38;5090145;27;20367;-77
2021/04/16 00:29:57;;;;;;;;;;;;;;;-1.10;100.00;100552.22;5110145;27;20264;-77
2021/04/16 00:32:36;;;;;;;;;;;;;;;-1.10;100.00;100559.63;5110330;27;20260;-77
2021/04/16 00:35:13;;;;;;;;;;;;;;;-1.06;100.00;100555.16;5092308;27;1519555;-77
2021/04/16 00:37:50;;;;;;;;;;;;;;;-1.11;100.00;100550.63;5057516;27;1575824;-77
2021/04/16 00:40:32;;;;;;;;;;;;;;;-1.18;100.00;100546.69;5090827;27;20116;-77
2021/04/16 00:43:09;;;;;;;;;;;;;;;-1.15;100.00;100549.59;5082915;27;1502483;-77
2021/04/16 00:45:49;;;;;;;;;;;;;;;-1.19;100.00;100539.56;5110349;27;19969;-77
2021/04/16 00:48:28;;;;;;;;;;;;;;;-1.27;100.00;100543.84;5110256;27;19958;-77
2021/04/16 00:51:06;;;;;;;;;;;;;;;-1.38;100.00;100541.66;5059915;27;1512643;-77
2021/04/16 00:53:45;;;;;;;;;;;;;;;-1.29;100.00;100548.03;5109860;27;20367;-77
2021/04/16 00:56:24;;;;;;;;;;;;;;;-1.32;100.00;100538.50;5090467;28;19912;-77
2021/04/16 00:59:03;;;;;;;;;;;;;;;-1.36;100.00;100542.19;5110348;27;20650;-76
2021/04/16 01:01:42;;;;;;;;;;;;;;;-1.41;100.00;100536.78;5089896;28;19916;-77
2021/04/16 01:04:21;;;;;;;;;;;;;;;-1.35;100.00;100541.03;5110429;27;19912;-77
2021/04/16 01:07:01;;;;;;;;;;;;;;;-1.46;100.00;100528.69;5089829;28;20330;-76
2021/04/16 01:09:53;;;;;;;;;;;;;;;-1.46;100.00;100528.69;5110330;27;19917;-77
2021/04/16 01:12:32;;;;;;;;;;;;;;;-1.54;100.00;100530.22;5089889;28;19973;-77
2021/04/16 01:15:25;;;;;;;;;;;;;;;-1.64;100.00;100529.63;5090060;28;19958;-77
2021/04/16 01:18:07;;;;;;;;;;;;;;;-1.65;100.00;100528.03;5110336;27;19913;-77
2021/04/16 01:20:46;;;;;;;;;;;;;;;-1.63;100.00;100525.78;5110382;27;19916;-77
2021/04/16 01:23:48;;;;;;;;;;;;;;;-1.52;100.00;100524.44;5109993;27;19959;-77
2021/04/16 01:26:36;;;;;;;;;;;;;;;-1.44;100.00;100520.97;5110276;27;19916;-77
2021/04/16 01:29:15;;;;;;;;;;;;;;;-1.55;100.00;100528.63;5110355;27;20376;-77
2021/04/16 01:31:53;;;;;;;;;;;;;;;-1.70;100.00;100530.88;5110258;27;19978;-77
2021/04/16 01:34:22;;;;;;;;;;;;;;;-1.69;100.00;100524.25;5110272;28;19924;-77
2021/04/16 01:36:50;;;;;;;;;;;;;;;-1.72;100.00;100528.44;5109910;28;19930;-77
2021/04/16 01:39:17;;;;;;;;;;;;;;;-1.62;100.00;100532.91;5092223;28;19931;-77
2021/04/16 01:41:43;;;;;;;;;;;;;;;-1.77;100.00;100530.50;5110053;28;19924;-77
2021/04/16 01:44:12;;;;;;;;;;;;;;;-1.68;100.00;100534.13;5110219;28;19928;-77
2021/04/16 01:47:05;;;;;;;;;;;;;;;-1.70;100.00;100531.69;5091668;28;19931;-77
2021/04/16 01:49:36;;;;;;;;;;;;;;;-1.73;100.00;100526.81;5106418;28;19962;-77
2021/04/16 01:52:04;;;;;;;;;;;;;;;-1.64;100.00;100524.16;5091839;28;20294;-77
2021/04/16 01:54:36;;;;;;;;;;;;;;;-1.83;100.00;100533.31;5109950;28;19927;-77
2021/04/16 01:57:08;;;;;;;;;;;;;;;-1.92;100.00;100531.59;5109749;28;19935;-77
2021/04/16 01:59:36;;;;;;;;;;;;;;;-1.93;100.00;100528.06;5109907;28;19946;-77
2021/04/16 02:02:04;;;;;;;;;;;;;;;-1.94;100.00;100528.38;5109669;28;19924;-77
2021/04/16 02:04:30;;;;;;;;;;;;;;;-1.98;100.00;100530.09;5109946;28;19931;-77
2021/04/16 02:06:57;;;;;;;;;;;;;;;-2.02;100.00;100529.91;5109313;28;19943;-77
2021/04/16 02:09:26;;;;;;;;;;;;;;;-2.04;100.00;100536.78;5109719;28;19928;-77
2021/04/16 02:11:53;;;;;;;;;;;;;;;-2.13;100.00;100533.16;5109607;28;19930;-77
2021/04/16 02:14:21;;;;;;;;;;;;;;;-2.19;100.00;100532.44;5091410;28;20418;-77
2021/04/16 02:16:49;;;;;;;;;;;;;;;-2.22;100.00;100530.31;5109330;28;19931;-77
2021/04/16 02:19:16;;;;;;;;;;;;;;;-2.16;100.00;100529.09;5109325;28;19927;-77
2021/04/16 02:21:42;;;;;;;;;;;;;;;-2.07;100.00;100532.75;5109280;28;19951;-77
2021/04/16 02:24:10;;;;;;;;;;;;;;;-2.02;100.00;100524.44;5109829;28;19978;-77
2021/04/16 02:26:36;;;;;;;;;;;;;;;-2.09;100.00;100525.97;5109360;28;20297;-77
2021/04/16 02:29:07;;;;;;;;;;;;;;;-2.21;100.00;100531.94;5109397;28;19939;-76
2021/04/16 02:31:34;;;;;;;;;;;;;;;-2.25;100.00;100524.63;5073706;28;19924;-77
2021/04/16 02:34:01;;;;;;;;;;;;;;;-2.30;100.00;100532.94;5091067;28;19924;-77
2021/04/16 02:36:27;;;;;;;;;;;;;;;-2.31;100.00;100526.66;5108884;28;20639;-77
2021/04/16 02:38:55;;;;;;;;;;;;;;;-2.21;100.00;100526.44;5091090;28;19928;-77
2021/04/16 02:41:22;;;;;;;;;;;;;;;-2.24;100.00;100526.25;5106092;28;20364;-77
2021/04/16 02:43:49;;;;;;;;;;;;;;;-2.32;100.00;100530.50;5096133;28;19924;-77
2021/04/16 02:46:16;;;;;;;;;;;;;;;-2.25;100.00;100524.63;5096212;28;19932;-77
2021/04/16 02:48:43;;;;;;;;;;;;;;;-2.23;100.00;100517.72;5088683;28;20352;-76
2021/04/16 02:51:10;;;;;;;;;;;;;;;-2.23;100.00;100523.19;5075637;28;19964;-76
2021/04/16 02:53:37;;;;;;;;;;;;;;;-2.33;100.00;100523.41;5075181;28;19924;-76
2021/04/16 02:56:03;;;;;;;;;;;;;;;-2.43;100.00;100531.00;5057781;28;19931;-77
2021/04/16 02:58:30;;;;;;;;;;;;;;;-2.63;100.00;100521.25;5075568;28;19924;-77
2021/04/16 03:00:57;;;;;;;;;;;;;;;-2.66;100.00;100523.78;5075610;28;19924;-77
2021/04/16 03:03:23;;;;;;;;;;;;;;;-2.63;100.00;100518.53;5075352;28;19928;-77
2021/04/16 03:05:51;;;;;;;;;;;;;;;-2.67;100.00;100531.19;5075263;28;19978;-77
2021/04/16 03:08:19;;;;;;;;;;;;;;;-2.69;100.00;100527.09;5075583;28;20062;-77
2021/04/16 03:10:48;;;;;;;;;;;;;;;-2.68;100.00;100529.53;5057736;28;20081;-77
2021/04/16 03:13:14;;;;;;;;;;;;;;;-2.64;100.00;100527.03;5057658;28;19931;-77
2021/04/16 03:15:41;;;;;;;;;;;;;;;-2.72;100.00;100523.06;5070200;28;19969;-77
2021/04/16 03:18:07;;;;;;;;;;;;;;;-2.75;100.00;100522.84;5076442;28;19932;-76
2021/04/16 03:20:34;;;;;;;;;;;;;;;-2.80;100.00;100523.75;5075309;28;19928;-77
2021/04/16 03:23:01;;;;;;;;;;;;;;;-2.77;100.00;100517.66;5074905;28;19925;-76
2021/04/16 03:25:27;;;;;;;;;;;;;;;-2.63;100.00;100524.00;5057551;28;19924;-77
2021/04/16 03:27:54;;;;;;;;;;;;;;;-2.50;100.00;100528.66;5075060;28;19932;-76
2021/04/16 03:30:22;;;;;;;;;;;;;;;-2.60;100.00;100531.59;5057054;28;19994;-76
2021/04/16 03:32:49;;;;;;;;;;;;;;;-2.81;100.00;100522.13;5057002;28;20366;-76
2021/04/16 03:35:17;;;;;;;;;;;;;;;-2.89;100.00;100525.53;5057024;28;19974;-77
2021/04/16 03:37:44;;;;;;;;;;;;;;;-2.94;100.00;100522.09;5075048;28;19924;-76
2021/04/16 03:40:13;;;;;;;;;;;;;;;-2.97;100.00;100528.97;5074812;28;19935;-77
2021/04/16 03:42:39;;;;;;;;;;;;;;;-3.05;100.00;100526.09;5074951;28;20023;-77
2021/04/16 03:45:07;;;;;;;;;;;;;;;-3.08;100.00;100527.53;5054410;28;19939;-77
2021/04/16 03:47:34;;;;;;;;;;;;;;;-3.06;100.00;100530.75;5074435;28;20479;-77
2021/04/16 03:50:00;;;;;;;;;;;;;;;-3.05;100.00;100529.66;5074574;28;19925;-76
2021/04/16 03:52:28;;;;;;;;;;;;;;;-2.96;100.00;100525.13;5074702;28;20359;-76
2021/04/16 03:54:55;;;;;;;;;;;;;;;-3.03;100.00;100527.41;5055794;28;19925;-77
2021/04/16 03:57:21;;;;;;;;;;;;;;;-2.92;100.00;100531.63;5075805;28;19932;-77
2021/04/16 03:59:48;;;;;;;;;;;;;;;-2.86;100.00;100529.63;5066642;28;19925;-76
2021/04/16 04:02:14;;;;;;;;;;;;;;;-2.84;100.00;100528.22;5056199;28;19944;-76
2021/04/16 04:04:41;;;;;;;;;;;;;;;-2.84;100.00;100528.22;5056820;28;19925;-76
2021/04/16 04:07:08;;;;;;;;;;;;;;;-2.99;100.00;100522.19;5074347;28;19931;-76
2021/04/16 04:09:36;;;;;;;;;;;;;;;-3.08;100.00;100533.00;5074397;28;19929;-76
2021/04/16 04:12:04;;;;;;;;;;;;;;;-3.08;100.00;100527.53;5074309;28;19924;-77
2021/04/16 04:14:30;;;;;;;;;;;;;;;-3.07;100.00;100528.31;5056522;28;20011;-76
2021/04/16 04:16:59;;;;;;;;;;;;;;;-2.94;100.00;100528.38;5074002;28;20040;-76
2021/04/16 04:19:28;;;;;;;;;;;;;;;-3.02;100.00;100520.88;5073942;28;20402;-76
2021/04/16 04:21:55;;;;;;;;;;;;;;;-3.17;100.00;100523.84;5074045;28;20371;-76
2021/04/16 04:24:22;;;;;;;;;;;;;;;-3.21;100.00;100531.00;5073942;28;19964;-77
2021/04/16 04:26:49;;;;;;;;;;;;;;;-3.26;100.00;100525.63;5056154;28;20011;-77
2021/04/16 04:29:17;;;;;;;;;;;;;;;-3.30;100.00;100524.59;5055992;28;19928;-77
2021/04/16 04:31:47;;;;;;;;;;;;;;;-3.32;100.00;100521.38;5055708;28;20398;-77
2021/04/16 04:34:15;;;;;;;;;;;;;;;-3.30;100.00;100521.06;5056117;28;20462;-77
2021/04/16 04:36:42;;;;;;;;;;;;;;;-3.26;100.00;100520.16;5073680;28;20066;-77
2021/04/16 04:39:09;;;;;;;;;;;;;;;-3.30;100.00;100515.59;5073962;28;20081;-77
2021/04/16 04:41:35;;;;;;;;;;;;;;;-3.35;100.00;100510.19;5073613;28;19951;-77
2021/04/16 04:44:02;;;;;;;;;;;;;;;-3.38;100.00;100513.53;5055999;28;20445;-77
2021/04/16 04:46:30;;;;;;;;;;;;;;;-3.35;100.00;100511.03;5055530;28;19933;-77
2021/04/16 04:48:57;;;;;;;;;;;;;;;-3.25;100.00;100516.31;5073726;28;19924;-77
2021/04/16 04:51:24;;;;;;;;;;;;;;;-3.21;100.00;100517.34;5055503;28;20019;-77
2021/04/16 04:53:50;;;;;;;;;;;;;;;-3.27;100.00;100515.00;5073602;28;20019;-77
2021/04/16 04:56:17;;;;;;;;;;;;;;;-3.21;100.00;100516.53;5073688;28;19924;-77
2021/04/16 04:58:43;;;;;;;;;;;;;;;-3.22;100.00;100518.47;5073305;28;19935;-76
2021/04/16 05:01:10;;;;;;;;;;;;;;;-3.25;100.00;100524.53;5073430;28;20284;-76
2021/04/16 05:03:37;;;;;;;;;;;;;;;-3.38;100.00;100524.47;5073593;28;19967;-76
2021/04/16 05:06:04;;;;;;;;;;;;;;;-3.57;100.00;100523.66;5073270;28;19924;-76
2021/04/16 05:08:30;;;;;;;;;;;;;;;-3.74;100.00;100529.63;5073482;28;19955;-76
2021/04/16 05:10:57;;;;;;;;;;;;;;;-3.76;100.00;100527.19;5073114;28;19928;-77
2021/04/16 05:13:23;;;;;;;;;;;;;;;-3.66;100.00;100520.78;5073435;28;19987;-77
2021/04/16 05:15:50;;;;;;;;;;;;;;;-3.60;100.00;100525.06;5073057;28;19967;-77
2021/04/16 05:18:18;;;;;;;;;;;;;;;-3.49;100.00;100523.81;5073457;28;20284;-77
2021/04/16 05:20:44;;;;;;;;;;;;;;;-3.55;100.00;100519.53;5055495;28;20432;-77
2021/04/16 05:23:11;;;;;;;;;;;;;;;-3.52;100.00;100518.09;5073399;28;19932;-77
2021/04/16 05:25:38;;;;;;;;;;;;;;;-3.37;100.00;100524.16;5073292;28;19925;-77
2021/04/16 05:28:05;;;;;;;;;;;;;;;-3.01;100.00;100518.91;5073033;28;19932;-77
2021/04/16 05:30:32;;;;;;;;;;;;;;;-2.80;100.00;100523.75;5055326;28;20011;-77
2021/04/16 05:32:59;;;;;;;;;;;;;;;-2.44;100.00;100527.44;5073148;28;19925;-77
2021/04/16 05:35:26;;;;;;;;;;;;;;;-2.10;100.00;100524.31;5073230;28;20018;-77
2021/04/16 05:37:57;;;;;;;;;;;;;;;-1.83;100.00;100516.88;5072841;28;20024;-77
2021/04/16 05:40:27;;;;;;;;;;;;;;;-1.55;100.00;100527.78;5055381;28;19924;-77
2021/04/16 05:42:54;;;;;;;;;;;;;;;-1.34;100.00;100517.97;5083044;28;20387;-78
2021/04/16 05:45:22;;;;;;;;;;;;;;;-0.77;100.00;100517.09;5063809;28;21505;-77
2021/04/16 05:47:49;;;;;;;;;;;;;;;-0.54;100.00;100518.69;5075733;28;20350;-77
2021/04/16 05:50:16;;;;;;;;;;;;;;;-0.86;100.00;100513.47;5088772;28;19931;-78
2021/04/16 05:52:43;;;;;;;;;;;;;;;-0.79;100.00;100508.38;5088421;28;20408;-78
2021/04/16 05:55:10;;;;;;;;;;;;;;;-0.71;100.00;100513.91;5085035;28;19924;-78
2021/04/16 05:57:40;;;;;;;;;;;;;;;-0.83;100.00;100510.09;5082289;28;19925;-77
2021/04/16 06:00:08;;;;;;;;;;;;;;;-0.87;100.00;100511.88;5064564;28;19959;-78
2021/04/16 06:02:37;;;;;;;;;;;;;;;-0.89;100.00;100509.44;5022579;28;19925;-77
2021/04/16 06:05:06;;;;;;;;;;;;;;;-1.02;100.00;100515.81;5026204;28;19925;-78
2021/04/16 06:07:33;;;;;;;;;;;;;;;-0.67;100.00;100514.09;5071084;28;19940;-77
2021/04/16 06:10:00;;;;;;;;;;;;;;;-0.46;100.00;100510.50;5043671;28;20410;-77
2021/04/16 06:12:27;;;;;;;;;;;;;;;-0.19;100.00;100518.53;5051975;28;19959;-78
2021/04/16 06:14:53;;;;;;;;;;;;;;;-0.04;100.00;100509.84;5069838;28;19924;-76
2021/04/16 06:17:20;;;;;;;;;;;;;;;0.13;100.00;100508.25;5052969;28;19924;-77
2021/04/16 06:19:49;;;;;;;;;;;;;;;0.27;100.00;100514.44;5073964;28;19932;-77
2021/04/16 06:22:18;;;;;;;;;;;;;;;0.45;100.00;100516.91;5072960;28;19932;-78
2021/04/16 06:24:45;;;;;;;;;;;;;;;0.53;100.00;100512.53;5054985;28;19928;-78
2021/04/16 06:27:12;;;;;;;;;;;;;;;0.55;100.00;100504.75;5074022;28;19925;-78
2021/04/16 06:29:38;;;;;;;;;;;;;;;0.85;100.00;100506.56;5086149;28;19942;-75
2021/04/16 06:32:05;;;;;;;;;;;;;;;1.55;100.00;100502.22;5055889;28;19968;-77
2021/04/16 06:34:32;;;;;;;;;;;;;;;2.37;100.00;100500.81;5039959;28;20280;-77
2021/04/16 06:36:59;;;;;;;;;;;;;;;3.20;100.00;100502.38;5074595;28;19931;-77
2021/04/16 06:39:25;;;;;;;;;;;;;;;4.14;100.00;100492.97;5055457;28;19928;-77
2021/04/16 06:41:52;;;;;;;;;;;;;;;4.74;100.00;100490.13;5072698;28;19931;-77
2021/04/16 06:44:19;;;;;;;;;;;;;;;5.39;100.00;100487.63;5058043;28;19925;-78
2021/04/16 06:46:48;;;;;;;;;;;;;;;6.07;100.00;100492.97;5046253;28;19933;-78
2021/04/16 06:49:18;;;;;;;;;;;;;;;6.72;100.00;100492.13;5037554;28;19925;-78
2021/04/16 06:52:02;;;;;;;;;;;;;;;7.18;100.00;100488.31;5055341;28;20368;-78
2021/04/16 06:54:37;;;;;;;;;;;;;;;7.44;100.00;100491.22;5055869;28;19925;-77
2021/04/16 06:57:21;;;;;;;;;;;;;;;7.71;100.00;100487.34;5055345;28;19931;-77
2021/04/16 06:59:53;;;;;;;;;;;;;;;8.02;100.00;100478.78;5055817;28;19929;-77
2021/04/16 07:02:24;;;;;;;;;;;;;;;8.17;100.00;100474.22;5055871;28;19967;-78
2021/04/16 07:04:53;;;;;;;;;;;;;;;8.54;100.00;100475.22;5055827;28;20376;-78
2021/04/16 07:07:26;;;;;;;;;;;;;;;8.88;100.00;100483.28;5037811;28;19925;-74
2021/04/16 07:09:59;;;;;;;;;;;;;;;8.82;100.00;100472.81;5020959;28;19936;-75
2021/04/16 07:12:26;;;;;;;;;;;;;;;9.17;100.00;100467.69;5038380;28;19933;-74
2021/04/16 07:14:57;;;;;;;;;;;;;;;9.25;100.00;100468.59;5054966;28;19925;-74
2021/04/16 07:17:27;;;;;;;;;;;;;;;9.36;100.00;100469.50;5053586;28;19925;-74
2021/04/16 07:19:54;;;;;;;;;;;;;;;9.69;100.00;100466.66;5062057;28;19924;-75
2021/04/16 07:22:22;;;;;;;;;;;;;;;9.62;100.00;100472.19;5044026;28;19929;-75
2021/04/16 07:24:50;;;;;;;;;;;;;;;9.59;100.00;100467.38;5054145;28;19925;-75
2021/04/16 07:27:19;;;;;;;;;;;;;;;9.98;100.00;100468.53;5062087;28;19928;-75
2021/04/16 07:29:55;;;;;;;;;;;;;;;9.78;100.00;100467.16;5046852;28;19931;-75
2021/04/16 07:32:26;;;;;;;;;;;;;;;9.99;100.00;100465.34;5061019;28;19925;-75
2021/04/16 07:34:54;;;;;;;;;;;;;;;10.22;100.00;100462.38;5055208;28;19924;-75
2021/04/16 07:37:26;;;;;;;;;;;;;;;10.62;100.00;100465.03;5036712;28;19964;-75
2021/04/16 07:40:05;;;;;;;;;;;;;;;10.86;100.00;100464.34;5060978;28;20654;-75
2021/04/16 07:42:50;;;;;;;;;;;;;;;10.88;100.00;100461.97;5037078;28;19932;-75
2021/04/16 07:45:25;;;;;;;;;;;;;;;10.74;100.00;100459.09;5055410;28;19924;-75
2021/04/16 07:47:53;;;;;;;;;;;;;;;11.16;100.00;100464.09;5060242;28;19925;-78
2021/04/16 07:50:27;;;;;;;;;;;;;;;11.32;100.00;100454.16;5054713;28;19950;-78
2021/04/16 07:52:54;;;;;;;;;;;;;;;11.59;100.00;100463.00;5036695;28;20027;-75
2021/04/16 07:55:24;;;;;;;;;;;;;;;11.10;100.00;100466.50;5032293;28;20265;-75
2021/04/16 07:57:50;;;;;;;;;;;;;;;11.20;100.00;100464.91;5044441;28;19928;-75
2021/04/16 08:00:26;;;;;;;;;;;;;;;11.29;100.00;100463.34;5056665;28;20019;-75
2021/04/16 08:03:01;;;;;;;;;;;;;;;11.54;100.00;100466.22;5074459;28;19924;-75
2021/04/16 08:05:31;;;;;;;;;;;;;;;10.60;100.00;100467.44;5070700;28;20007;-75
2021/04/16 08:08:12;;;;;;;;;;;;;;;11.14;100.00;100467.28;5042090;28;19997;-76
2021/04/16 08:10:41;;;;;;;;;;;;;;;11.46;100.00;100467.41;5049987;28;19925;-76
2021/04/16 08:13:10;;;;;;;;;;;;;;;10.98;100.00;100468.81;5049438;28;19951;-77
2021/04/16 08:15:37;;;;;;;;;;;;;;;11.36;100.00;100471.75;5033454;28;19960;-76
2021/04/16 08:18:12;;;;;;;;;;;;;;;10.93;100.00;100464.41;5051135;28;19932;-76
2021/04/16 08:21:02;;;;;;;;;;;;;;;10.44;100.00;100464.94;5050159;28;19925;-75
2021/04/16 08:23:55;;;;;;;;;;;;;;;10.25;100.00;100478.34;5041826;28;19932;-76
2021/04/16 08:26:26;;;;;;;;;;;;;;;10.60;100.00;100475.81;5043483;28;19939;-76
2021/04/16 08:28:57;;;;;;;;;;;;;;;11.14;100.00;100466.47;5047927;28;19931;-79
2021/04/16 08:31:34;;;;;;;;;;;;;;;11.03;100.00;100466.44;5049274;28;19924;-78
2021/04/16 08:34:21;;;;;;;;;;;;;;;11.53;100.00;100471.00;5050764;28;20008;-78
2021/04/16 08:36:51;;;;;;;;;;;;;;;10.54;100.00;100474.59;5047906;28;19932;-78
2021/04/16 08:39:41;;;;;;;;;;;;;;;10.35;100.00;100472.03;5057038;28;19956;-78
2021/04/16 08:42:16;;;;;;;;;;;;;;;10.26;100.00;100474.38;5051104;28;19940;-79
2021/04/16 08:44:51;;;;;;;;;;;;;;;10.12;100.00;100471.44;5033263;28;19972;-79
2021/04/16 08:47:29;;;;;;;;;;;;;;;10.07;100.00;100477.41;5056846;28;20690;-79
2021/04/16 08:49:56;;;;;;;;;;;;;;;10.82;100.00;100474.72;5032600;28;19986;-79
2021/04/16 08:52:29;;;;;;;;;;;;;;;10.59;100.00;100468.59;5045713;28;19925;-79
2021/04/16 08:55:11;;;;;;;;;;;;;;;9.92;100.00;100464.50;5050509;28;19928;-79
2021/04/16 08:57:45;;;;;;;;;;;;;;;9.91;100.00;100462.88;5043526;28;20063;-78
2021/04/16 09:00:21;;;;;;;;;;;;;;;10.29;100.00;100462.41;5033915;28;19929;-79
2021/04/16 09:02:50;;;;;;;;;;;;;;;11.16;100.00;100467.72;5030437;28;19940;-77
2021/04/16 09:05:49;;;;;;;;;;;;;;;11.43;100.00;100460.59;5048185;28;19928;-77
2021/04/16 09:08:16;;;;;;;;;;;;;;;11.10;100.00;100468.47;5041880;28;20023;-77
2021/04/16 09:10:44;;;;;;;;;;;;;;;11.49;100.00;100470.22;5041802;28;19960;-77
2021/04/16 09:13:33;;;;;;;;;;;;;;;10.79;100.00;100464.34;5046981;28;19936;-77
2021/04/16 09:16:15;;;;;;;;;;;;;;;10.88;100.00;100478.75;5047418;28;20465;-77
2021/04/16 09:18:44;;;;;;;;;;;;;;;10.78;100.00;100468.34;5055937;28;19990;-77
2021/04/16 09:21:10;;;;;;;;;;;;;;;10.82;100.00;100467.16;5048417;28;20296;-75
2021/04/16 09:23:37;;;;;;;;;;;;;;;11.00;100.00;100475.63;5047395;28;20299;-78
2021/04/16 09:26:04;;;;;;;;;;;;;;;9.97;100.00;100470.50;5049519;28;20533;-77
2021/04/16 09:28:33;;;;;;;;;;;;;;;10.51;100.00;100469.78;5053208;28;19925;-77
2021/04/16 09:31:20;;;;;;;;;;;;;;;10.82;100.00;100464.34;5045531;28;19925;-77
2021/04/16 09:33:47;;;;;;;;;;;;;;;10.56;100.00;100461.00;5022249;28;20017;-77
2021/04/16 09:36:26;;;;;;;;;;;;;;;10.92;100.00;100462.78;5055730;28;19943;-79
2021/04/16 09:38:53;;;;;;;;;;;;;;;10.72;100.00;100453.13;5054231;28;19932;-77
2021/04/16 09:41:20;;;;;;;;;;;;;;;10.81;100.00;100450.78;5054100;28;19983;-77
2021/04/16 09:43:49;;;;;;;;;;;;;;;11.07;100.00;100460.88;5055535;28;20016;-78
2021/04/16 09:46:39;;;;;;;;;;;;;;;11.17;100.00;100449.72;5046484;28;19932;-79
2021/04/16 09:49:29;;;;;;;;;;;;;;;11.63;100.00;100461.06;5042527;28;20536;-77
2021/04/16 09:51:57;;;;;;;;;;;;;;;11.61;100.00;100450.25;5064865;28;19925;-77
2021/04/16 09:54:35;;;;;;;;;;;;;;;11.87;100.00;100447.13;5064318;28;19924;-77
2021/04/16 09:57:02;;;;;;;;;;;;;;;11.88;100.00;100454.31;5065692;28;19924;-76
2021/04/16 09:59:29;;;;;;;;;;;;;;;11.40;100.00;100441.00;5058128;28;20011;-77
2021/04/16 10:02:16;;;;;;;;;;;;;;;11.47;100.00;100439.00;5067135;28;19931;-76
2021/04/16 10:04:46;;;;;;;;;;;;;;;11.77;100.00;100442.28;5044530;28;19975;-77
2021/04/16 10:07:13;;;;;;;;;;;;;;;11.90;100.00;100448.31;5063332;28;19929;-77
2021/04/16 10:09:40;;;;;;;;;;;;;;;11.98;100.00;100433.88;5059016;28;19924;-76
2021/04/16 10:12:28;;;;;;;;;;;;;;;11.71;100.00;100440.28;5066993;28;19931;-73
2021/04/16 10:14:56;;;;;;;;;;;;;;;11.15;100.00;100431.75;5050434;28;20363;-72
2021/04/16 10:17:26;;;;;;;;;;;;;;;10.38;100.00;100434.94;5066422;28;20371;-79
2021/04/16 10:20:09;;;;;;;;;;;;;;;9.84;100.00;100435.72;5069905;28;19963;-80
2021/04/16 10:22:37;;;;;;;;;;;;;;;9.69;100.00;100434.00;5065751;28;20525;-80
2021/04/16 12:38:59;;;;;;;;;;;;;;;11.57;100.00;100337.44;5071256;28;19932;-78
2021/04/16 12:41:37;;;;;;;;;;;;;;;11.46;100.00;100333.03;5052931;28;19925;-77
2021/04/16 12:44:05;;;;;;;;;;;;;;;11.63;100.00;100329.50;5073118;28;20394;-78
2021/04/16 12:46:36;;;;;;;;;;;;;;;11.99;100.00;100325.44;5070334;28;19931;-77
2021/04/16 12:49:03;;;;;;;;;;;;;;;12.45;100.00;100320.50;5053814;28;19925;-78
2021/04/16 12:51:30;;;;;;;;;;;;;;;12.75;100.00;100315.19;5072723;28;19924;-78
2021/04/16 12:53:56;;;;;;;;;;;;;;;13.20;100.00;100316.94;5070471;28;20618;-77
2021/04/16 12:56:29;;;;;;;;;;;;;;;11.84;100.00;100323.88;5071521;28;19969;-78
2021/04/16 12:59:01;;;;;;;;;;;;;;;11.18;100.00;100314.22;5067079;28;19942;-79
2021/04/16 13:01:29;;;;;;;;;;;;;;;10.83;100.00;100323.34;5061478;28;19990;-81
2021/04/16 13:03:57;;;;;;;;;;;;;;;10.56;100.00;100313.69;5063040;28;19924;-81
2021/04/16 13:06:30;;;;;;;;;;;;;;;10.86;100.00;100318.94;5066929;28;19925;-81
2021/04/16 13:08:57;;;;;;;;;;;;;;;11.01;100.00;100322.59;5047614;28;20380;-81
2021/04/16 13:11:24;;;;;;;;;;;;;;;11.18;100.00;100311.44;5049197;28;20537;-78
2021/04/16 13:13:51;;;;;;;;;;;;;;;11.35;100.00;100307.03;5061724;28;19932;-78
2021/04/16 13:16:18;;;;;;;;;;;;;;;11.53;100.00;100305.84;5050531;28;20283;-79
2021/04/16 13:18:46;;;;;;;;;;;;;;;11.83;100.00;100297.09;5069476;28;20260;-79
2021/04/16 13:21:17;;;;;;;;;;;;;;;11.61;100.00;100306.66;5062769;28;20346;-79
2021/04/16 13:23:44;;;;;;;;;;;;;;;11.62;100.00;100311.88;5060219;28;20373;-78
2021/04/16 13:26:11;;;;;;;;;;;;;;;11.30;100.00;100291.47;5052336;28;19931;-77
2021/04/16 13:28:38;;;;;;;;;;;;;;;11.05;100.00;100293.44;5047637;28;19928;-77
2021/04/16 13:31:05;;;;;;;;;;;;;;;10.87;100.00;100292.63;5056195;28;20341;-77
2021/04/16 13:33:35;;;;;;;;;;;;;;;10.68;100.00;100301.31;5051645;28;19968;-77
2021/04/16 13:36:03;;;;;;;;;;;;;;;10.82;100.00;100291.00;5051366;28;19928;-77
2021/04/16 13:38:30;;;;;;;;;;;;;;;11.23;100.00;100291.47;5075320;28;19928;-78
2021/04/16 13:40:59;;;;;;;;;;;;;;;11.26;100.00;100292.66;5069461;28;19924;-78
2021/04/16 13:43:25;;;;;;;;;;;;;;;11.34;100.00;100288.66;5033841;28;19936;-78
2021/04/16 13:45:52;;;;;;;;;;;;;;;11.56;100.00;100291.06;5068767;28;19931;-78
2021/04/16 13:48:19;;;;;;;;;;;;;;;11.49;100.00;100293.88;5070957;28;20427;-78
2021/04/16 13:50:46;;;;;;;;;;;;;;;11.23;100.00;100285.88;5064405;28;19924;-77
2021/04/16 13:53:15;;;;;;;;;;;;;;;10.94;100.00;100299.03;5059588;28;20272;-77
2021/04/16 13:55:42;;;;;;;;;;;;;;;10.64;100.00;100295.75;5064336;28;19935;-77
2021/04/16 13:58:08;;;;;;;;;;;;;;;10.38;100.00;100295.22;5076863;28;20279;-77
2021/04/16 14:00:36;;;;;;;;;;;;;;;10.36;100.00;100290.03;5055012;28;19924;-77
2021/04/16 14:03:03;;;;;;;;;;;;;;;10.30;100.00;100297.19;5072991;28;19935;-78
2021/04/16 14:05:29;;;;;;;;;;;;;;;10.25;100.00;100277.22;5072868;28;19928;-77
2021/04/16 14:07:59;;;;;;;;;;;;;;;10.52;100.00;100272.94;5073012;28;19932;-78
2021/04/16 14:10:26;;;;;;;;;;;;;;;10.75;100.00;100276.22;5072602;28;19932;-77
2021/04/16 14:12:53;;;;;;;;;;;;;;;11.07;100.00;100268.69;5072513;28;19932;-78
2021/04/16 14:15:20;;;;;;;;;;;;;;;10.97;100.00;100266.66;5072880;28;19932;-77
2021/04/16 14:17:49;;;;;;;;;;;;;;;11.17;100.00;100259.47;5072418;28;19928;-77
2021/04/16 14:20:21;;;;;;;;;;;;;;;11.38;100.00;100262.28;5072729;28;20395;-77
2021/04/16 14:22:50;;;;;;;;;;;;;;;11.31;100.00;100265.09;5054973;28;19925;-78
2021/04/16 14:25:19;;;;;;;;;;;;;;;11.36;100.00;100252.69;5072384;28;20273;-77
2021/04/16 14:27:45;;;;;;;;;;;;;;;10.88;100.00;100250.28;5072529;28;19931;-77
2021/04/16 14:30:15;;;;;;;;;;;;;;;10.70;100.00;100252.25;5072511;28;19928;-77
2021/04/16 14:32:42;;;;;;;;;;;;;;;10.64;100.00;100250.22;5054811;28;19924;-77
2021/04/16 14:35:09;;;;;;;;;;;;;;;10.42;100.00;100249.34;5054722;28;19966;-77
2021/04/16 14:37:36;;;;;;;;;;;;;;;10.48;100.00;100247.78;5072950;28;20009;-77
2021/04/16 14:40:03;;;;;;;;;;;;;;;10.63;100.00;100252.19;5075004;28;20020;-77
2021/04/16 14:42:30;;;;;;;;;;;;;;;11.32;100.00;100247.09;5075635;28;19956;-77
2021/04/16 14:44:57;;;;;;;;;;;;;;;11.17;100.00;100248.28;5052479;28;19979;-77
2021/04/16 14:47:25;;;;;;;;;;;;;;;10.86;100.00;100247.06;5075409;28;19925;-77
2021/04/16 14:49:52;;;;;;;;;;;;;;;10.70;100.00;100238.25;5048779;28;19932;-77
2021/04/16 14:52:20;;;;;;;;;;;;;;;10.97;100.00;100235.88;5058099;28;19925;-77
2021/04/16 14:54:49;;;;;;;;;;;;;;;11.17;100.00;100234.31;5075701;28;19928;-77
2021/04/16 14:57:22;;;;;;;;;;;;;;;10.88;100.00;100232.69;5074412;28;19924;-77
2021/04/16 14:59:49;;;;;;;;;;;;;;;10.70;100.00;100231.84;5075801;28;19936;-77